Time;durP1;ratioP1;P1;durP2;ratioP2;P2;SDS_P1;SDS_P2;PMS_P1;PMS_P2;Temp;Humidity;BMP_temperature;BMP_pressure;BME280_temperature;BME280_humidity;BME280_pressure;Samples;Min_cycle;Max_cycle;Signal;HPM_P1;HPM_P2
2023/03/16 00:01:16;;;;;;;5.63;2.72;;;;;;;;;;6191340;23;20044;-79
2023/03/16 00:03:42;;;;;;;5.15;2.50;;;;;;;;;;6165078;23;20055;-79
2023/03/16 00:06:08;;;;;;;3.53;2.47;;;;;;;;;;6192640;23;20001;-79
2023/03/16 00:08:35;;;;;;;5.93;2.78;;;;;;;;;;6189853;23;20305;-78
2023/03/16 00:11:01;;;;;;;6.78;2.70;;;;;;;;;;6188591;23;20012;-78
2023/03/16 00:13:28;;;;;;;6.30;3.00;;;;;;;;;;6188537;23;20408;-78
2023/03/16 00:15:55;;;;;;;6.25;2.70;;;;;;;;;;6187687;23;20324;-78
2023/03/16 00:18:22;;;;;;;5.78;2.65;;;;;;;;;;6188020;23;20085;-78
2023/03/16 00:21:06;;;;;;;4.43;2.50;;;;;;;;;;6187773;23;20043;-78
2023/03/16 00:23:34;;;;;;;4.53;2.58;;;;;;;;;;6187849;23;20005;-78
2023/03/16 00:26:04;;;;;;;6.05;3.45;;;;;;;;;;6188187;23;20059;-78
2023/03/16 00:28:34;;;;;;;7.20;2.95;;;;;;;;;;6188425;23;20008;-78
2023/03/16 00:31:07;;;;;;;4.65;2.50;;;;;;;;;;6187865;23;20024;-78
2023/03/16 00:33:36;;;;;;;4.38;2.92;;;;;;;;;;6187471;23;20032;-78
2023/03/16 00:36:03;;;;;;;3.92;2.22;;;;;;;;;;6187873;23;20384;-78
2023/03/16 00:38:30;;;;;;;5.78;2.90;;;;;;;;;;6187887;23;20001;-78
2023/03/16 00:40:56;;;;;;;6.50;2.90;;;;;;;;;;6187884;23;20059;-78
2023/03/16 00:43:26;;;;;;;6.63;2.50;;;;;;;;;;6188388;23;20001;-78
2023/03/16 00:45:57;;;;;;;6.65;2.75;;;;;;;;;;6161425;23;20511;-78
2023/03/16 00:48:23;;;;;;;4.80;2.45;;;;;;;;;;6188127;23;20009;-78
2023/03/16 00:50:53;;;;;;;4.47;2.75;;;;;;;;;;6187617;23;20427;-78
2023/03/16 00:53:19;;;;;;;4.40;2.80;;;;;;;;;;6187553;23;19997;-78
2023/03/16 00:55:45;;;;;;;4.90;2.30;;;;;;;;;;6187270;23;20032;-78
2023/03/16 00:58:13;;;;;;;3.88;2.30;;;;;;;;;;6187189;23;20001;-78
2023/03/16 01:00:40;;;;;;;6.35;2.78;;;;;;;;;;6186842;23;20013;-78
2023/03/16 01:03:21;;;;;;;4.15;2.50;;;;;;;;;;6187064;23;20001;-78
2023/03/16 01:05:47;;;;;;;3.95;2.85;;;;;;;;;;6186638;23;20009;-78
2023/03/16 01:08:14;;;;;;;5.28;2.67;;;;;;;;;;6160860;23;20339;-78
2023/03/16 01:10:40;;;;;;;4.28;2.33;;;;;;;;;;6187275;23;20040;-78
2023/03/16 01:13:06;;;;;;;4.10;2.80;;;;;;;;;;6187020;23;20001;-78
2023/03/16 01:15:33;;;;;;;4.35;2.50;;;;;;;;;;6187698;23;19997;-78
2023/03/16 01:17:59;;;;;;;6.28;2.80;;;;;;;;;;6187388;23;20001;-78
2023/03/16 01:20:25;;;;;;;3.83;2.70;;;;;;;;;;6187270;23;20029;-78
2023/03/16 01:22:51;;;;;;;9.73;2.95;;;;;;;;;;6186581;23;20002;-78
2023/03/16 01:25:17;;;;;;;6.72;2.70;;;;;;;;;;6186647;23;20001;-78
2023/03/16 01:27:43;;;;;;;5.22;2.88;;;;;;;;;;6187054;23;20028;-78
2023/03/16 01:30:11;;;;;;;6.00;2.88;;;;;;;;;;6187203;23;20005;-78
2023/03/16 01:32:38;;;;;;;5.00;3.05;;;;;;;;;;6187086;23;20355;-78
2023/03/16 01:35:04;;;;;;;7.38;3.58;;;;;;;;;;6187131;23;20288;-78
2023/03/16 01:37:30;;;;;;;3.72;3.00;;;;;;;;;;6186876;23;20428;-78
2023/03/16 01:39:56;;;;;;;3.33;2.80;;;;;;;;;;6186570;23;20012;-78
2023/03/16 01:42:23;;;;;;;6.95;3.05;;;;;;;;;;6186613;23;20122;-78
2023/03/16 01:44:53;;;;;;;5.63;2.80;;;;;;;;;;6187545;23;20003;-78
2023/03/16 01:47:21;;;;;;;6.65;3.05;;;;;;;;;;6187200;23;20001;-78
2023/03/16 01:49:56;;;;;;;5.85;3.45;;;;;;;;;;6187428;23;20009;-78
2023/03/16 01:52:23;;;;;;;8.20;3.50;;;;;;;;;;6186633;23;20095;-78
2023/03/16 01:54:49;;;;;;;7.38;3.10;;;;;;;;;;6186651;23;20323;-78
2023/03/16 01:57:19;;;;;;;5.93;2.97;;;;;;;;;;6186396;23;20005;-78
2023/03/16 01:59:51;;;;;;;5.75;3.45;;;;;;;;;;6186618;23;20023;-78
2023/03/16 02:02:19;;;;;;;4.85;3.38;;;;;;;;;;6186802;23;20096;-78
2023/03/16 02:05:04;;;;;;;6.55;3.28;;;;;;;;;;6186827;23;19997;-78
2023/03/16 02:07:33;;;;;;;4.22;3.15;;;;;;;;;;6187016;23;20005;-78
2023/03/16 02:10:04;;;;;;;6.47;3.40;;;;;;;;;;6186555;23;20601;-78
2023/03/16 02:12:30;;;;;;;6.43;3.40;;;;;;;;;;6186466;23;20004;-78
2023/03/16 02:14:56;;;;;;;6.72;3.70;;;;;;;;;;6159794;23;20001;-78
2023/03/16 02:17:27;;;;;;;4.03;3.47;;;;;;;;;;6186631;23;20012;-78
2023/03/16 02:20:10;;;;;;;7.25;3.78;;;;;;;;;;6186540;23;19993;-78
2023/03/16 02:22:41;;;;;;;6.82;4.10;;;;;;;;;;6186791;23;20327;-78
2023/03/16 02:25:07;;;;;;;5.32;3.30;;;;;;;;;;6186547;23;20331;-78
2023/03/16 02:27:52;;;;;;;4.78;3.05;;;;;;;;;;6186725;23;20080;-78
2023/03/16 02:30:18;;;;;;;5.22;3.60;;;;;;;;;;6186943;23;20012;-78
2023/03/16 02:32:57;;;;;;;5.32;3.78;;;;;;;;;;6186379;23;20023;-78
2023/03/16 02:35:23;;;;;;;8.70;3.90;;;;;;;;;;6185933;23;20334;-78
2023/03/16 02:37:51;;;;;;;5.95;3.92;;;;;;;;;;6186486;23;20001;-78
2023/03/16 02:40:25;;;;;;;4.78;3.53;;;;;;;;;;6187226;23;20001;-78
2023/03/16 02:43:02;;;;;;;7.40;3.97;;;;;;;;;;6187417;23;20019;-78
2023/03/16 02:45:32;;;;;;;6.75;4.60;;;;;;;;;;6187944;23;19994;-78
2023/03/16 02:47:58;;;;;;;5.82;3.72;;;;;;;;;;6193520;23;19998;-78
2023/03/16 02:50:24;;;;;;;5.45;3.80;;;;;;;;;;6188706;23;20080;-78
2023/03/16 02:52:50;;;;;;;7.82;4.10;;;;;;;;;;6189817;23;20005;-78
2023/03/16 02:55:16;;;;;;;9.40;4.47;;;;;;;;;;6194037;23;20049;-78
2023/03/16 02:57:42;;;;;;;6.40;3.67;;;;;;;;;;6189281;23;20084;-78
2023/03/16 03:00:13;;;;;;;9.15;4.60;;;;;;;;;;6188309;23;20004;-78
2023/03/16 03:02:39;;;;;;;6.25;3.75;;;;;;;;;;6188790;23;20024;-78
2023/03/16 03:05:05;;;;;;;4.43;3.63;;;;;;;;;;6188516;23;20001;-78
2023/03/16 03:07:31;;;;;;;6.22;3.78;;;;;;;;;;6188296;23;20471;-78
2023/03/16 03:09:57;;;;;;;6.57;4.10;;;;;;;;;;6188395;23;20036;-78
2023/03/16 03:12:23;;;;;;;5.78;4.10;;;;;;;;;;6188140;23;20067;-78
2023/03/16 03:15:07;;;;;;;5.90;3.85;;;;;;;;;;6188134;23;20001;-78
2023/03/16 03:20:36;;;;;;;5.97;3.97;;;;;;;;;;6188295;23;20012;-78
2023/03/16 03:23:02;;;;;;;4.63;3.95;;;;;;;;;;6188399;23;20043;-78
2023/03/16 03:25:28;;;;;;;5.10;4.03;;;;;;;;;;6187904;23;20061;-78
2023/03/16 03:27:54;;;;;;;6.88;3.88;;;;;;;;;;6187965;23;19997;-78
2023/03/16 03:30:21;;;;;;;7.85;4.47;;;;;;;;;;6161754;23;20028;-78
2023/03/16 03:32:47;;;;;;;6.75;4.03;;;;;;;;;;6161652;23;20335;-78
2023/03/16 03:35:14;;;;;;;5.28;3.70;;;;;;;;;;6187991;23;20024;-78
2023/03/16 03:37:41;;;;;;;7.55;4.10;;;;;;;;;;6187793;23;20370;-78
2023/03/16 03:40:09;;;;;;;5.88;3.65;;;;;;;;;;6188082;23;20001;-78
2023/03/16 03:42:35;;;;;;;8.40;4.40;;;;;;;;;;6188610;23;20476;-78
2023/03/16 03:45:01;;;;;;;7.03;4.03;;;;;;;;;;6188232;23;20044;-78
2023/03/16 03:47:27;;;;;;;9.77;4.35;;;;;;;;;;6188483;23;20024;-78
2023/03/16 03:49:53;;;;;;;5.85;3.75;;;;;;;;;;6161442;23;20005;-78
2023/03/16 03:52:19;;;;;;;6.20;4.05;;;;;;;;;;6188241;23;19997;-78
2023/03/16 03:54:45;;;;;;;5.88;4.00;;;;;;;;;;6187924;23;20407;-78
2023/03/16 03:57:12;;;;;;;7.00;3.72;;;;;;;;;;6188036;23;20449;-78
2023/03/16 03:59:42;;;;;;;7.97;4.05;;;;;;;;;;6187882;23;20001;-78
2023/03/16 04:02:08;;;;;;;;;;;;;;;;;;6188595;23;20013;-78
2023/03/16 04:04:35;;;;;;;5.43;3.45;;;;;;;;;;6188636;23;19904;-78
2023/03/16 04:07:00;;;;;;;6.22;4.07;;;;;;;;;;6188110;23;20005;-78
2023/03/16 04:09:26;;;;;;;6.95;4.05;;;;;;;;;;6189028;23;20046;-78
2023/03/16 04:11:56;;;;;;;6.25;3.83;;;;;;;;;;6188976;23;20319;-78
2023/03/16 04:14:22;;;;;;;7.05;4.38;;;;;;;;;;6189215;23;20081;-78
2023/03/16 04:16:48;;;;;;;6.75;3.67;;;;;;;;;;6189525;23;19997;-78
2023/03/16 04:19:14;;;;;;;8.40;3.90;;;;;;;;;;6189909;23;20020;-78
2023/03/16 04:21:40;;;;;;;7.20;4.50;;;;;;;;;;6189350;23;20024;-78
2023/03/16 04:24:06;;;;;;;8.55;4.63;;;;;;;;;;6188689;23;20462;-78
2023/03/16 04:26:33;;;;;;;5.47;3.67;;;;;;;;;;6189589;23;20075;-78
2023/03/16 04:28:59;;;;;;;7.40;4.35;;;;;;;;;;6189595;23;20450;-79
2023/03/16 04:31:25;;;;;;;8.18;4.30;;;;;;;;;;6189045;23;20028;-78
2023/03/16 04:33:53;;;;;;;6.53;4.00;;;;;;;;;;6188455;23;19997;-78
2023/03/16 04:36:23;;;;;;;7.13;4.07;;;;;;;;;;6188280;23;20058;-78
2023/03/16 04:38:49;;;;;;;5.63;3.83;;;;;;;;;;6188214;23;20004;-78
2023/03/16 04:41:17;;;;;;;5.90;4.10;;;;;;;;;;6188497;23;20004;-78
2023/03/16 04:43:44;;;;;;;6.68;3.97;;;;;;;;;;6161577;23;20440;-78
2023/03/16 04:46:10;;;;;;;6.60;4.10;;;;;;;;;;6188481;23;19997;-78
2023/03/16 04:48:43;;;;;;;6.65;3.80;;;;;;;;;;6161322;23;20013;-78
2023/03/16 04:51:09;;;;;;;7.18;4.30;;;;;;;;;;6187467;23;20474;-78
2023/03/16 04:53:35;;;;;;;5.70;3.67;;;;;;;;;;6187284;23;20001;-78
2023/03/16 04:56:02;;;;;;;6.45;4.20;;;;;;;;;;6187118;23;20001;-78
2023/03/16 04:58:29;;;;;;;8.27;4.57;;;;;;;;;;6187617;23;20483;-78
2023/03/16 05:00:54;;;;;;;6.25;4.03;;;;;;;;;;6187413;23;20013;-78
2023/03/16 05:03:21;;;;;;;5.40;4.13;;;;;;;;;;6187574;23;20080;-78
2023/03/16 05:05:48;;;;;;;6.97;4.20;;;;;;;;;;6187722;23;19997;-78
2023/03/16 05:08:14;;;;;;;7.95;4.03;;;;;;;;;;6161372;23;20083;-78
2023/03/16 05:10:40;;;;;;;6.75;4.10;;;;;;;;;;6187499;23;20005;-78
2023/03/16 05:13:06;;;;;;;6.05;3.53;;;;;;;;;;6187326;23;20021;-78
2023/03/16 05:15:32;;;;;;;6.65;4.00;;;;;;;;;;6188137;23;20024;-78
2023/03/16 05:17:58;;;;;;;5.43;3.72;;;;;;;;;;6189123;23;20067;-78
2023/03/16 05:20:24;;;;;;;4.55;3.45;;;;;;;;;;6192430;23;20001;-78
2023/03/16 05:22:50;;;;;;;5.85;4.25;;;;;;;;;;6192455;23;20301;-78
2023/03/16 05:25:26;;;;;;;6.47;4.15;;;;;;;;;;6192671;23;19993;-77
2023/03/16 05:27:53;;;;;;;6.25;3.95;;;;;;;;;;6189626;23;20017;-78
2023/03/16 05:30:19;;;;;;;5.65;3.60;;;;;;;;;;6164788;23;20463;-78
2023/03/16 05:32:45;;;;;;;6.82;3.70;;;;;;;;;;6189082;23;20076;-78
2023/03/16 05:35:12;;;;;;;8.35;4.40;;;;;;;;;;6189463;23;19997;-79
2023/03/16 05:37:39;;;;;;;7.55;3.65;;;;;;;;;;6188591;23;20117;-79
2023/03/16 05:40:39;;;;;;;6.97;4.10;;;;;;;;;;6186601;23;20079;-79
2023/03/16 05:42:59;;;;;;;5.60;3.53;;;;;;;;;;6181604;23;20013;-78
2023/03/16 05:45:25;;;;;;;5.60;3.95;;;;;;;;;;6186355;23;20021;-78
2023/03/16 05:47:52;;;;;;;6.13;3.97;;;;;;;;;;6185620;23;20319;-78
2023/03/16 05:50:18;;;;;;;8.98;3.58;;;;;;;;;;6186129;23;20005;-78
2023/03/16 05:52:44;;;;;;;6.00;3.90;;;;;;;;;;6185812;23;20025;-78
2023/03/16 05:55:11;;;;;;;6.00;3.63;;;;;;;;;;6186159;23;20072;-78
2023/03/16 05:57:37;;;;;;;7.40;4.05;;;;;;;;;;6186137;23;20320;-78
2023/03/16 06:00:12;;;;;;;9.38;4.38;;;;;;;;;;6186560;23;20048;-78
2023/03/16 06:02:38;;;;;;;6.25;3.97;;;;;;;;;;6186383;23;20048;-78
2023/03/16 06:05:04;;;;;;;7.13;4.13;;;;;;;;;;6186408;23;20415;-78
2023/03/16 06:07:30;;;;;;;7.40;4.32;;;;;;;;;;6160389;23;20032;-78
2023/03/16 06:10:03;;;;;;;6.55;4.15;;;;;;;;;;6188571;23;20403;-78
2023/03/16 06:12:30;;;;;;;5.72;3.97;;;;;;;;;;6186706;23;20002;-78
2023/03/16 06:14:56;;;;;;;7.82;4.38;;;;;;;;;;6186602;23;20001;-77
2023/03/16 06:17:21;;;;;;;7.18;3.95;;;;;;;;;;6186184;23;20029;-78
2023/03/16 06:19:47;;;;;;;6.00;4.20;;;;;;;;;;6186042;23;20059;-78
2023/03/16 06:22:13;;;;;;;6.43;3.85;;;;;;;;;;6159687;23;20430;-77
2023/03/16 06:24:40;;;;;;;7.47;4.28;;;;;;;;;;6160151;23;20301;-78
2023/03/16 06:27:06;;;;;;;7.68;4.40;;;;;;;;;;6188021;23;20004;-78
2023/03/16 06:29:32;;;;;;;6.95;4.13;;;;;;;;;;6188421;23;20012;-77
2023/03/16 06:31:58;;;;;;;5.80;3.97;;;;;;;;;;6189054;23;19997;-78
2023/03/16 06:34:24;;;;;;;6.97;4.43;;;;;;;;;;6189550;23;20006;-78
2023/03/16 06:36:50;;;;;;;7.57;4.38;;;;;;;;;;6189107;23;20011;-78
2023/03/16 06:39:16;;;;;;;6.72;4.10;;;;;;;;;;6189440;23;20019;-78
2023/03/16 06:41:42;;;;;;;7.32;4.47;;;;;;;;;;6189434;23;20008;-78
2023/03/16 06:44:10;;;;;;;9.45;4.47;;;;;;;;;;6189666;23;19998;-78
2023/03/16 06:46:36;;;;;;;6.35;4.10;;;;;;;;;;6189922;23;20079;-78
2023/03/16 06:49:03;;;;;;;7.50;4.63;;;;;;;;;;6189159;23;20356;-78
2023/03/16 06:51:29;;;;;;;6.25;4.00;;;;;;;;;;6163228;23;20009;-78
2023/03/16 06:53:55;;;;;;;5.78;4.20;;;;;;;;;;6188903;23;19993;-78
2023/03/16 06:56:21;;;;;;;6.13;3.95;;;;;;;;;;6189390;23;20032;-78
2023/03/16 06:58:47;;;;;;;6.85;4.05;;;;;;;;;;6188828;23;20461;-77
2023/03/16 07:01:13;;;;;;;5.90;3.42;;;;;;;;;;6188031;23;20036;-78
2023/03/16 07:03:39;;;;;;;7.60;4.00;;;;;;;;;;6162203;23;20020;-77
2023/03/16 07:06:05;;;;;;;9.18;4.47;;;;;;;;;;6188758;23;19997;-78
2023/03/16 07:08:31;;;;;;;5.95;3.92;;;;;;;;;;6162519;23;20004;-78
2023/03/16 07:10:57;;;;;;;7.68;4.57;;;;;;;;;;6189073;23;20001;-78
2023/03/16 07:13:23;;;;;;;5.68;4.05;;;;;;;;;;6163930;23;20002;-77
2023/03/16 07:15:52;;;;;;;5.63;3.40;;;;;;;;;;6188813;23;20008;-77
2023/03/16 07:18:19;;;;;;;5.65;3.80;;;;;;;;;;6189648;23;20001;-78
2023/03/16 07:20:45;;;;;;;7.55;4.18;;;;;;;;;;6162345;23;20023;-78
2023/03/16 07:23:11;;;;;;;5.53;3.90;;;;;;;;;;6188711;23;20415;-78
2023/03/16 07:25:37;;;;;;;4.95;3.55;;;;;;;;;;6188474;23;20008;-78
2023/03/16 07:28:03;;;;;;;6.50;3.92;;;;;;;;;;6188580;23;20420;-77
2023/03/16 07:30:30;;;;;;;5.25;3.58;;;;;;;;;;6188811;23;20001;-77
2023/03/16 07:33:00;;;;;;;5.63;3.65;;;;;;;;;;6188436;23;20451;-77
2023/03/16 07:35:27;;;;;;;;;;;;;;;;;;6189628;23;19997;-78
2023/03/16 07:37:53;;;;;;;7.45;3.70;;;;;;;;;;6188235;23;20291;-77
2023/03/16 07:40:19;;;;;;;12.23;4.10;;;;;;;;;;6187779;23;20055;-78
2023/03/16 07:42:45;;;;;;;6.07;4.00;;;;;;;;;;6187524;23;20416;-78
2023/03/16 07:45:13;;;;;;;8.10;3.60;;;;;;;;;;6187327;23;20033;-77
2023/03/16 07:47:51;;;;;;;6.70;4.00;;;;;;;;;;6187389;23;20419;-78
2023/03/16 07:50:24;;;;;;;7.40;4.00;;;;;;;;;;6186734;23;19997;-78
2023/03/16 07:52:51;;;;;;;6.85;3.50;;;;;;;;;;6187132;23;19997;-77
2023/03/16 07:55:17;;;;;;;6.32;3.67;;;;;;;;;;6187223;23;20007;-78
2023/03/16 07:57:46;;;;;;;5.30;3.60;;;;;;;;;;6186658;23;20039;-77
2023/03/16 08:00:13;;;;;;;7.88;3.55;;;;;;;;;;6187135;23;20390;-77
2023/03/16 08:02:39;;;;;;;8.88;3.88;;;;;;;;;;6187037;23;20044;-77
2023/03/16 08:05:05;;;;;;;6.32;3.67;;;;;;;;;;6186652;23;20577;-77
2023/03/16 08:07:31;;;;;;;6.47;3.70;;;;;;;;;;6186540;23;20008;-77
2023/03/16 08:09:57;;;;;;;5.60;3.67;;;;;;;;;;6186084;23;20001;-77
2023/03/16 08:12:23;;;;;;;6.57;4.07;;;;;;;;;;6184041;23;20009;-78
2023/03/16 08:14:49;;;;;;;6.20;3.90;;;;;;;;;;6185488;23;19993;-77
2023/03/16 08:17:15;;;;;;;6.55;3.60;;;;;;;;;;6185656;23;20032;-77
2023/03/16 08:19:41;;;;;;;5.28;3.47;;;;;;;;;;6186220;23;20001;-78
2023/03/16 08:22:07;;;;;;;5.18;2.80;;;;;;;;;;6159804;23;20434;-77
2023/03/16 08:24:33;;;;;;;6.45;3.47;;;;;;;;;;6186470;23;19997;-77
2023/03/16 08:26:59;;;;;;;5.97;3.33;;;;;;;;;;6186277;23;20332;-78
2023/03/16 08:29:26;;;;;;;5.13;3.33;;;;;;;;;;6186154;23;20023;-77
2023/03/16 08:31:53;;;;;;;7.38;3.40;;;;;;;;;;6185989;23;19997;-77
2023/03/16 08:34:20;;;;;;;7.32;3.33;;;;;;;;;;6186719;23;20055;-77
2023/03/16 08:36:46;;;;;;;5.63;2.97;;;;;;;;;;6186118;23;20537;-77
2023/03/16 08:39:12;;;;;;;7.63;3.60;;;;;;;;;;6186760;23;20055;-78
2023/03/16 08:41:39;;;;;;;4.50;3.10;;;;;;;;;;6187456;23;20055;-77
2023/03/16 08:44:06;;;;;;;6.40;3.20;;;;;;;;;;6186682;23;20604;-77
2023/03/16 08:46:33;;;;;;;8.02;3.10;;;;;;;;;;6186614;23;20009;-77
2023/03/16 08:49:00;;;;;;;4.18;3.03;;;;;;;;;;6187507;23;20008;-78
2023/03/16 08:51:28;;;;;;;5.80;2.90;;;;;;;;;;6186352;23;20011;-77
2023/03/16 08:53:54;;;;;;;4.40;2.55;;;;;;;;;;6186688;23;20001;-78
2023/03/16 08:56:20;;;;;;;6.25;2.65;;;;;;;;;;6187573;23;20336;-78
2023/03/16 08:58:46;;;;;;;4.55;3.05;;;;;;;;;;6188269;23;20001;-78
2023/03/16 09:01:14;;;;;;;8.13;3.20;;;;;;;;;;6188559;23;20017;-78
2023/03/16 09:03:41;;;;;;;3.90;2.33;;;;;;;;;;6187693;23;20024;-78
2023/03/16 09:06:09;;;;;;;3.97;2.33;;;;;;;;;;6186856;23;19998;-77
2023/03/16 09:08:35;;;;;;;5.38;2.60;;;;;;;;;;6187409;23;20080;-78
2023/03/16 09:11:09;;;;;;;5.68;2.60;;;;;;;;;;6187001;23;20001;-78
2023/03/16 09:13:46;;;;;;;5.47;2.65;;;;;;;;;;6187915;23;20393;-78
2023/03/16 09:16:12;;;;;;;2.83;2.17;;;;;;;;;;6160588;23;20363;-78
2023/03/16 09:18:38;;;;;;;3.67;1.92;;;;;;;;;;6186829;23;20050;-78
2023/03/16 09:21:06;;;;;;;5.15;3.25;;;;;;;;;;6188355;23;20047;-78
2023/03/16 09:23:33;;;;;;;5.60;2.88;;;;;;;;;;6186292;23;20369;-78
2023/03/16 09:26:00;;;;;;;11.40;3.45;;;;;;;;;;6186188;23;20005;-78
2023/03/16 09:28:26;;;;;;;4.13;3.00;;;;;;;;;;6186834;23;20399;-78
2023/03/16 09:30:55;;;;;;;7.47;2.80;;;;;;;;;;6187578;23;20320;-78
2023/03/16 09:33:23;;;;;;;6.25;3.10;;;;;;;;;;6159950;23;20001;-78
2023/03/16 09:35:49;;;;;;;6.35;2.70;;;;;;;;;;6185983;23;20005;-78
2023/03/16 09:38:16;;;;;;;7.45;3.30;;;;;;;;;;6186810;23;20001;-78
2023/03/16 09:40:43;;;;;;;6.28;2.78;;;;;;;;;;6161369;23;20005;-78
2023/03/16 09:43:12;;;;;;;4.35;2.75;;;;;;;;;;6186495;23;20020;-78
2023/03/16 09:45:56;;;;;;;6.22;3.60;;;;;;;;;;6186579;23;20024;-78
2023/03/16 09:48:24;;;;;;;5.53;3.00;;;;;;;;;;6189843;23;20359;-78
2023/03/16 09:50:51;;;;;;;5.60;3.40;;;;;;;;;;6187503;23;20001;-78
2023/03/16 09:53:28;;;;;;;5.70;3.30;;;;;;;;;;6184011;23;20001;-78
2023/03/16 09:56:00;;;;;;;4.68;2.53;;;;;;;;;;6184691;23;20367;-78
2023/03/16 09:58:27;;;;;;;6.20;3.20;;;;;;;;;;6184965;23;20067;-78
2023/03/16 10:00:53;;;;;;;3.92;2.92;;;;;;;;;;6184214;23;20420;-78
2023/03/16 10:03:22;;;;;;;5.68;2.90;;;;;;;;;;6185104;23;20036;-79
2023/03/16 10:05:52;;;;;;;7.72;2.65;;;;;;;;;;6186836;23;20020;-78
2023/03/16 10:08:23;;;;;;;5.82;3.22;;;;;;;;;;6186335;23;20001;-78
2023/03/16 10:11:04;;;;;;;5.82;2.80;;;;;;;;;;6187998;23;20315;-78
2023/03/16 10:14:00;;;;;;;9.20;3.55;;;;;;;;;;6186755;23;20012;-78
2023/03/16 10:16:35;;;;;;;6.43;3.45;;;;;;;;;;6161059;23;20500;-78
2023/03/16 10:19:02;;;;;;;6.35;3.58;;;;;;;;;;6187218;23;20001;-78
2023/03/16 10:21:31;;;;;;;4.63;3.13;;;;;;;;;;6186302;23;20005;-78
2023/03/16 10:24:00;;;;;;;6.25;3.75;;;;;;;;;;6187648;23;19993;-79
2023/03/16 10:26:30;;;;;;;5.35;3.10;;;;;;;;;;6187694;23;20024;-78
2023/03/16 10:28:56;;;;;;;8.10;3.42;;;;;;;;;;6187351;23;20009;-78
2023/03/16 10:31:23;;;;;;;7.82;3.55;;;;;;;;;;6162658;23;20428;-79
2023/03/16 10:33:51;;;;;;;5.40;3.78;;;;;;;;;;6188074;23;20048;-78
2023/03/16 10:36:18;;;;;;;7.80;4.15;;;;;;;;;;6187595;23;20079;-79
2023/03/16 10:38:54;;;;;;;6.68;3.80;;;;;;;;;;6187503;23;20012;-79
2023/03/16 10:41:20;;;;;;;6.43;3.70;;;;;;;;;;6187893;23;20001;-78
2023/03/16 10:43:50;;;;;;;7.07;3.40;;;;;;;;;;6187985;23;20439;-79
2023/03/16 10:46:17;;;;;;;7.70;3.45;;;;;;;;;;6188258;23;19998;-79
2023/03/16 10:48:51;;;;;;;5.80;3.53;;;;;;;;;;6187728;23;20008;-79
2023/03/16 10:51:21;;;;;;;5.00;3.33;;;;;;;;;;6190182;23;20012;-79
2023/03/16 10:53:47;;;;;;;7.22;3.97;;;;;;;;;;6160761;23;20005;-78
2023/03/16 10:56:24;;;;;;;4.70;3.40;;;;;;;;;;6187573;23;20008;-79
2023/03/16 10:58:51;;;;;;;9.40;4.35;;;;;;;;;;6190149;23;20036;-79
2023/03/16 11:01:27;;;;;;;5.32;3.80;;;;;;;;;;6188408;23;20017;-79
2023/03/16 11:03:54;;;;;;;5.53;3.70;;;;;;;;;;6187655;23;20017;-79
2023/03/16 11:06:30;;;;;;;5.55;3.50;;;;;;;;;;6188938;23;19997;-79
2023/03/16 11:09:07;;;;;;;7.68;3.55;;;;;;;;;;6187822;23;20040;-79
2023/03/16 11:11:36;;;;;;;5.32;3.67;;;;;;;;;;6185071;23;20312;-79
2023/03/16 11:14:03;;;;;;;4.28;2.45;;;;;;;;;;6185445;23;20005;-79
2023/03/16 11:16:32;;;;;;;5.97;3.50;;;;;;;;;;6186293;23;20051;-79
2023/03/16 11:19:00;;;;;;;5.93;3.42;;;;;;;;;;6189418;23;20008;-80
2023/03/16 11:21:37;;;;;;;7.57;3.22;;;;;;;;;;6190425;23;20008;-80
2023/03/16 11:24:05;;;;;;;6.53;3.13;;;;;;;;;;6188619;23;20008;-80
2023/03/16 11:26:33;;;;;;;5.82;3.58;;;;;;;;;;6188853;23;20024;-80
2023/03/16 11:29:01;;;;;;;6.68;3.10;;;;;;;;;;6161521;23;20428;-80
2023/03/16 11:31:41;;;;;;;7.53;2.90;;;;;;;;;;6189274;23;20021;-80
2023/03/16 11:34:18;;;;;;;5.93;2.90;;;;;;;;;;6189493;23;20001;-80
2023/03/16 11:36:48;;;;;;;7.65;3.47;;;;;;;;;;6191396;23;19997;-80
2023/03/16 11:39:14;;;;;;;;;;;;;;;;;;6189411;23;20007;-80
2023/03/16 11:42:00;;;;;;;4.63;3.05;;;;;;;;;;6189202;23;19900;-80
2023/03/16 11:44:45;;;;;;;5.10;3.28;;;;;;;;;;6189187;23;20001;-80
2023/03/16 11:47:30;;;;;;;3.67;2.55;;;;;;;;;;6188231;23;20001;-79
2023/03/16 11:50:14;;;;;;;4.18;2.90;;;;;;;;;;6190961;23;20007;-80
2023/03/16 11:52:40;;;;;;;4.82;2.97;;;;;;;;;;6163645;23;20005;-80
2023/03/16 11:55:08;;;;;;;5.35;3.25;;;;;;;;;;6188953;23;20084;-80
2023/03/16 11:57:45;;;;;;;5.97;3.15;;;;;;;;;;6188707;23;20024;-80
2023/03/16 12:00:11;;;;;;;7.28;3.25;;;;;;;;;;6191804;23;20085;-80
2023/03/16 12:02:47;;;;;;;4.82;2.83;;;;;;;;;;6181613;23;20013;-80
2023/03/16 12:05:41;;;;;;;3.47;2.70;;;;;;;;;;6190534;23;20099;-81
2023/03/16 12:08:16;;;;;;;5.68;2.80;;;;;;;;;;6187860;23;20415;-80
2023/03/16 12:11:03;;;;;;;4.45;2.33;;;;;;;;;;6188459;23;20092;-80
2023/03/16 12:13:52;;;;;;;6.65;3.53;;;;;;;;;;6192375;23;20004;-80
2023/03/16 12:16:23;;;;;;;6.60;3.35;;;;;;;;;;6192082;23;20025;-81
2023/03/16 12:18:53;;;;;;;5.35;3.20;;;;;;;;;;6191220;23;20363;-80
2023/03/16 12:21:31;;;;;;;6.50;2.88;;;;;;;;;;6194679;23;20084;-81
2023/03/16 12:23:59;;;;;;;6.53;2.90;;;;;;;;;;6191951;23;20408;-80
2023/03/16 12:26:28;;;;;;;7.97;4.05;;;;;;;;;;6191717;23;20324;-81
2023/03/16 12:28:55;;;;;;;5.40;3.42;;;;;;;;;;6193514;23;20079;-81
2023/03/16 12:31:33;;;;;;;4.43;2.60;;;;;;;;;;6192256;23;20029;-81
2023/03/16 12:34:06;;;;;;;4.28;3.17;;;;;;;;;;6192137;23;20005;-81
2023/03/16 12:36:32;;;;;;;4.63;2.90;;;;;;;;;;6191896;23;20001;-80
2023/03/16 12:39:13;;;;;;;3.72;2.90;;;;;;;;;;6190019;23;20019;-81
2023/03/16 12:41:42;;;;;;;7.90;3.60;;;;;;;;;;6189983;23;20001;-81
2023/03/16 12:44:17;;;;;;;4.93;2.80;;;;;;;;;;6188538;23;20005;-81
2023/03/16 12:46:51;;;;;;;4.15;3.33;;;;;;;;;;6194313;23;20063;-81
2023/03/16 12:49:18;;;;;;;5.35;3.00;;;;;;;;;;6190689;23;20320;-81
2023/03/16 12:51:44;;;;;;;5.60;3.40;;;;;;;;;;6191184;23;20434;-80
2023/03/16 12:54:22;;;;;;;9.13;3.83;;;;;;;;;;6190104;23;20004;-81
2023/03/16 12:56:50;;;;;;;5.53;3.47;;;;;;;;;;6188497;23;20001;-81
2023/03/16 12:59:18;;;;;;;5.75;3.80;;;;;;;;;;6190396;23;20005;-81
2023/03/16 13:01:45;;;;;;;5.88;3.70;;;;;;;;;;6192313;23;20020;-81
2023/03/16 13:04:15;;;;;;;5.97;3.63;;;;;;;;;;6191952;23;20332;-81
2023/03/16 13:06:42;;;;;;;;;;;;;;;;;;6188724;23;20008;-81
2023/03/16 13:09:11;;;;;;;5.90;3.70;;;;;;;;;;6163048;23;20312;-81
2023/03/16 13:11:48;;;;;;;6.95;4.07;;;;;;;;;;6163739;23;20440;-81
2023/03/16 13:14:16;;;;;;;5.28;3.50;;;;;;;;;;6193112;23;20621;-81
2023/03/16 13:16:44;;;;;;;4.93;3.78;;;;;;;;;;6192547;23;20115;-81
2023/03/16 13:19:20;;;;;;;7.43;4.10;;;;;;;;;;6190930;23;20009;-81
2023/03/16 13:21:59;;;;;;;6.75;4.00;;;;;;;;;;6190886;23;20008;-81
2023/03/16 13:24:38;;;;;;;8.07;3.80;;;;;;;;;;6191997;23;20028;-81
2023/03/16 13:27:10;;;;;;;5.00;3.35;;;;;;;;;;6189918;23;20327;-81
2023/03/16 13:29:36;;;;;;;5.95;4.03;;;;;;;;;;6191001;23;20001;-81
2023/03/16 13:32:06;;;;;;;6.03;3.88;;;;;;;;;;6163907;23;20012;-81
2023/03/16 13:34:35;;;;;;;6.43;3.83;;;;;;;;;;6190150;23;20023;-81
2023/03/16 13:37:01;;;;;;;5.10;3.20;;;;;;;;;;6190593;23;20009;-81
2023/03/16 13:39:29;;;;;;;5.38;3.53;;;;;;;;;;6190835;23;20005;-80
2023/03/16 13:42:16;;;;;;;5.88;3.38;;;;;;;;;;6189674;23;19997;-81
2023/03/16 13:44:43;;;;;;;5.97;3.28;;;;;;;;;;6188042;23;20455;-81
2023/03/16 13:47:16;;;;;;;7.05;3.55;;;;;;;;;;6187976;23;20001;-81
2023/03/16 13:49:46;;;;;;;5.13;3.13;;;;;;;;;;6187093;23;20005;-80
2023/03/16 13:52:32;;;;;;;4.15;2.58;;;;;;;;;;6186712;23;20001;-80
2023/03/16 13:54:58;;;;;;;6.32;3.50;;;;;;;;;;6188051;23;20004;-80
2023/03/16 13:57:26;;;;;;;6.43;2.67;;;;;;;;;;6186753;23;20471;-80
2023/03/16 13:59:57;;;;;;;3.97;2.90;;;;;;;;;;6185718;23;20000;-80
2023/03/16 14:02:24;;;;;;;4.60;2.85;;;;;;;;;;6186516;23;20024;-80
2023/03/16 14:04:50;;;;;;;4.07;2.88;;;;;;;;;;6185728;23;20005;-80
2023/03/16 14:07:17;;;;;;;4.80;3.00;;;;;;;;;;6185894;23;19997;-80
2023/03/16 14:09:48;;;;;;;5.80;3.63;;;;;;;;;;6186395;23;20013;-80
2023/03/16 14:12:15;;;;;;;3.88;2.90;;;;;;;;;;6187619;23;20001;-80
2023/03/16 14:14:42;;;;;;;5.35;3.50;;;;;;;;;;6160226;23;20088;-81
2023/03/16 14:17:10;;;;;;;8.27;3.22;;;;;;;;;;6190250;23;20001;-81
2023/03/16 14:19:43;;;;;;;4.22;3.38;;;;;;;;;;6186730;23;20012;-80
2023/03/16 14:22:20;;;;;;;5.88;3.92;;;;;;;;;;6185076;23;20051;-81
2023/03/16 14:24:52;;;;;;;5.50;3.45;;;;;;;;;;6186504;23;20371;-82
2023/03/16 14:27:20;;;;;;;7.45;3.88;;;;;;;;;;6188009;23;19997;-83
2023/03/16 14:29:51;;;;;;;7.20;3.78;;;;;;;;;;6164666;23;20427;-83
2023/03/16 14:32:29;;;;;;;4.03;3.00;;;;;;;;;;6191289;23;20419;-83
2023/03/16 14:35:15;;;;;;;7.40;3.47;;;;;;;;;;6190292;23;20001;-83
2023/03/16 14:37:41;;;;;;;6.43;3.22;;;;;;;;;;6190569;23;19997;-83
2023/03/16 14:40:20;;;;;;;4.95;3.83;;;;;;;;;;6189923;23;20435;-83
2023/03/16 14:42:46;;;;;;;4.32;3.17;;;;;;;;;;6191393;23;20027;-83
2023/03/16 14:45:14;;;;;;;5.28;3.10;;;;;;;;;;6192508;23;19997;-83
2023/03/16 14:47:48;;;;;;;5.53;3.92;;;;;;;;;;6188451;23;19997;-83
2023/03/16 14:50:21;;;;;;;5.88;3.60;;;;;;;;;;6161395;23;20009;-83
2023/03/16 14:52:49;;;;;;;7.97;3.67;;;;;;;;;;6191595;23;20004;-83
2023/03/16 14:55:18;;;;;;;4.72;3.53;;;;;;;;;;6188565;23;20383;-83
2023/03/16 14:57:44;;;;;;;5.25;3.92;;;;;;;;;;6165256;23;20038;-83